Startpagina
METAR-TAF:

METAR-TAF

Vliegvelden :

Productieplatform

Euro, Nederland

breedte: 51-59-52N, lengte: 3-16-30E, hoogte: 18 m

Actueel weer

Dit bericht is 21 minuten geleden gemaakt, om 06:25 UTC
Wind 22 kt uit het zuiden
Temperatuur 13°C
Vochtigheid 88%
Druk 1005 hPa
Zicht 10 km of meer

METAR: EHSA 160625Z AUTO 17022KT 9999 ///////// 13/11 Q1005 W14/H10

Tijdstip: 08:46 (06:46 UTC)


TAF: ontbreekt

Waarnemingen en weersverwachtingen van meer dan 4000 vliegvelden (METAR en TAF).

De beschikbare stations zijn de gele en rode punten op de kaart.

Ga met uw muis naar het station om de naam te zien.

Klik dan om waarnemingen en weersverwachtingen te zien.

kaart wijzigen: klik op de groene knoppen met een zwart kruis om in te zoomen, op de groene knop met een streepje om uit te zoomen of op de groene pijlen voor aangrenzende kaarten.


METAR-TAF: